Twr-7 — TWR-7 — position and weather

sailwx.info

Track history (hours):
 
Tides and Currents Weather Stations Pressure Air Temp Water Temp Dewpoint Dewpoint Depression Visibility Wind Speed Wind Dir Waves Ship Positions

Twr-7

Last reported at 2017-Oct-27 21:20 UTC. Time now 2017-Dec-11 22:50 UTC.
Position N 47°48' W 122°42'.
Warning: this ship's position is 45 days out of date.

; draft 1.5 m.

Type: Military. MMSI: 369970258.

Date/timePositionNaut miles runAvg speedWind from/ knotsBaromVisibWave heightAir tempDewpointWater temp
2017-Oct-27 21:20N 47°48' W 122°42'3614.6
2017-Oct-27 18:50N 48°22' W 123°01'517.1
2017-Oct-27 18:30N 48°26' W 123°06'816.5
2017-Oct-27 18:01N 48°33' W 123°13'916.8
2017-Oct-27 17:28N 48°42' W 123°16'816.9
2017-Oct-27 17:00N 48°49' W 123°21'815.5
2017-Oct-27 16:30N 48°55' W 123°29'816.4
2017-Oct-27 16:00N 49°01' W 123°38'815.3
2017-Oct-27 15:30N 49°06' W 123°46'612.5
2017-Oct-27 15:00N 49°10' W 123°53'713.1
2017-Oct-27 14:30N 49°15' W 124°00'611.9
2017-Oct-27 14:01N 49°16' W 124°09'  
Track history (hours):
 
Tides and Currents Weather Stations Pressure Air Temp Water Temp Dewpoint Dewpoint Depression Visibility Wind Speed Wind Dir Waves Ship Positions

Twr-7

Last reported at 2017-Oct-27 21:20 UTC. Time now 2017-Dec-11 22:50 UTC.
Position N 47°48' W 122°42'.
Warning: this ship's position is 45 days out of date.

; draft 1.5 m.

Type: Military. MMSI: 369970258.

Date/timePositionNaut miles runAvg speedWind from/ knotsBaromVisibWave heightAir tempDewpointWater temp
2017-Oct-27 21:20N 47°48' W 122°42'3614.6
2017-Oct-27 18:50N 48°22' W 123°01'517.1
2017-Oct-27 18:30N 48°26' W 123°06'816.5
2017-Oct-27 18:01N 48°33' W 123°13'916.8
2017-Oct-27 17:28N 48°42' W 123°16'816.9
2017-Oct-27 17:00N 48°49' W 123°21'815.5
2017-Oct-27 16:30N 48°55' W 123°29'816.4
2017-Oct-27 16:00N 49°01' W 123°38'815.3
2017-Oct-27 15:30N 49°06' W 123°46'612.5
2017-Oct-27 15:00N 49°10' W 123°53'713.1
2017-Oct-27 14:30N 49°15' W 124°00'611.9
2017-Oct-27 14:01N 49°16' W 124°09'  

Dump ship's entire track history